Excellent Pescadores — HORK — position and weather

sailwx.info

Track history (hours):
 
Tides and Currents Weather Stations Pressure Air Temp Water Temp Dewpoint Dewpoint Depression Visibility Wind Speed Wind Dir Waves Ship Positions

Excellent Pescadores

Last reported at 2018-Feb-22 02:56 UTC. Time now 2018-Feb-22 03:18 UTC.
Position N 21°22' E 072°24'.

Length 148 m; draft 9.2 m.

Type: Cargo ship. MMSI: 356291000.

Date/timePositionNaut miles runAvg speedWind from/ knotsBaromVisibWave heightAir tempDewpointWater temp
2018-Feb-22 02:56N 21°22' E 072°24'0 0.0
2018-Feb-22 02:26N 21°22' E 072°24'0 0.0
2018-Feb-22 01:56N 21°22' E 072°24'0 0.0
2018-Feb-22 01:25N 21°22' E 072°24'0 0.0
2018-Feb-22 00:55N 21°22' E 072°24'0 0.0
2018-Feb-22 00:25N 21°22' E 072°24'0 0.3
2018-Feb-21 23:56N 21°22' E 072°24'1 3.2
2018-Feb-21 23:30N 21°23' E 072°24'4 7.7
2018-Feb-21 23:00N 21°21' E 072°20'612.7
2018-Feb-21 22:30N 21°16' E 072°18'612.7
2018-Feb-21 22:00N 21°10' E 072°15'612.2
2018-Feb-21 21:30N 21°04' E 072°12'611.5
2018-Feb-21 21:00N 20°59' E 072°09'510.0
2018-Feb-21 20:29N 20°54' E 072°08'5 9.5
2018-Feb-21 20:00N 20°50' E 072°07'5 9.8
2018-Feb-21 19:30N 20°45' E 072°04'510.1
2018-Feb-21 18:59N 20°41' E 072°02'5 9.8
2018-Feb-21 18:28N 20°37' E 071°58'510.0
2018-Feb-21 18:00N 20°34' E 071°54'5 9.6
2018-Feb-21 17:30N 20°33' E 071°49'5 9.3
2018-Feb-21 16:59N 20°32' E 071°44'11 7.8
2018-Feb-21 15:35N 20°24' E 071°36'210.2
2018-Feb-21 15:22N 20°21' E 071°36'710.3
2018-Feb-21 14:41N 20°15' E 071°38'3010.2
2018-Feb-21 11:44N 20°00' E 072°06'  
2018-Feb-12 17:01N 01°13' E 103°31'212.6
2018-Feb-12 16:52N 01°12' E 103°32'512.8
2018-Feb-12 16:29N 01°11' E 103°37'612.3
2018-Feb-12 16:00N 01°09' E 103°42'912.9
2018-Feb-12 15:17N 01°12' E 103°51'513.7
2018-Feb-12 14:57N 01°14' E 103°55'  
Track history (hours):
 
Tides and Currents Weather Stations Pressure Air Temp Water Temp Dewpoint Dewpoint Depression Visibility Wind Speed Wind Dir Waves Ship Positions

Excellent Pescadores

Last reported at 2018-Feb-22 02:56 UTC. Time now 2018-Feb-22 03:18 UTC.
Position N 21°22' E 072°24'.

Length 148 m; draft 9.2 m.

Type: Cargo ship. MMSI: 356291000.

Date/timePositionNaut miles runAvg speedWind from/ knotsBaromVisibWave heightAir tempDewpointWater temp
2018-Feb-22 02:56N 21°22' E 072°24'0 0.0
2018-Feb-22 02:26N 21°22' E 072°24'0 0.0
2018-Feb-22 01:56N 21°22' E 072°24'0 0.0
2018-Feb-22 01:25N 21°22' E 072°24'0 0.0
2018-Feb-22 00:55N 21°22' E 072°24'0 0.0
2018-Feb-22 00:25N 21°22' E 072°24'0 0.3
2018-Feb-21 23:56N 21°22' E 072°24'1 3.2
2018-Feb-21 23:30N 21°23' E 072°24'4 7.7
2018-Feb-21 23:00N 21°21' E 072°20'612.7
2018-Feb-21 22:30N 21°16' E 072°18'612.7
2018-Feb-21 22:00N 21°10' E 072°15'612.2
2018-Feb-21 21:30N 21°04' E 072°12'611.5
2018-Feb-21 21:00N 20°59' E 072°09'510.0
2018-Feb-21 20:29N 20°54' E 072°08'5 9.5
2018-Feb-21 20:00N 20°50' E 072°07'5 9.8
2018-Feb-21 19:30N 20°45' E 072°04'510.1
2018-Feb-21 18:59N 20°41' E 072°02'5 9.8
2018-Feb-21 18:28N 20°37' E 071°58'510.0
2018-Feb-21 18:00N 20°34' E 071°54'5 9.6
2018-Feb-21 17:30N 20°33' E 071°49'5 9.3
2018-Feb-21 16:59N 20°32' E 071°44'11 7.8
2018-Feb-21 15:35N 20°24' E 071°36'210.2
2018-Feb-21 15:22N 20°21' E 071°36'710.3
2018-Feb-21 14:41N 20°15' E 071°38'3010.2
2018-Feb-21 11:44N 20°00' E 072°06'  
2018-Feb-12 17:01N 01°13' E 103°31'212.6
2018-Feb-12 16:52N 01°12' E 103°32'512.8
2018-Feb-12 16:29N 01°11' E 103°37'612.3
2018-Feb-12 16:00N 01°09' E 103°42'912.9
2018-Feb-12 15:17N 01°12' E 103°51'513.7
2018-Feb-12 14:57N 01°14' E 103°55'  

Dump ship's entire track history